To NAV CANADA Home Page Login to a new session Search on AWWS site Feedback and Comments Disclaimer Vers la page française équivalente Tips FAQ What's new on the site To the Forecasts and Observations / NOTAM section To "File a Flight Plan" website Publications and other links Update of the User's profile FIC Telephone Numbers My Weather Data Folder Route Weather Data Regional Weather Data Local Weather Data To the Forecasts and Observations / NOTAM section
Request Generated 03/23/2017 at 00:11:31 UTC . Weather information available at that time is displayed.

METAR/TAF

MONTREAL INTL (MIRABEL)/QC    

METAR CYMX 230000Z 29006KT 260V330 25SM SKC M09/M22 A3039 RMK SLP299=
METAR CYMX 222300Z 30008G19KT 260V340 25SM SKC M09/M22 A3037 RMK
SLP291=
METAR CYMX 222200Z 30007G21KT 270V340 45SM SKC M08/M21 A3034 RMK
SLP283=

TAF CYMX 222338Z 2300/2324 30010G20KT P6SM SKC
BECMG 2300/2302 28008KT
FM231600 27010G20KT P6SM FEW040
FM232200 24005KT P6SM BKN220
RMK NXT FCST BY 230600Z=
Your time UTC time
Weather data provided by Environment Canada and NAV CANADA